createdAt,value
2022-09-01T00:00:03.135Z,12.05
2022-09-01T00:02:35.227Z,12.06
2022-09-01T00:05:04.851Z,12.09
2022-09-01T00:07:35.470Z,12.11
2022-09-01T00:10:05.722Z,12.14
2022-09-01T00:12:35.742Z,12.15
2022-09-01T00:15:06.206Z,12.15
2022-09-01T00:17:35.059Z,12.17
2022-09-01T00:20:05.139Z,12.21
2022-09-01T00:22:34.038Z,12.24
2022-09-01T00:25:02.962Z,12.19
2022-09-01T00:27:32.979Z,12.24
2022-09-01T00:30:01.734Z,12.26
2022-09-01T00:32:30.725Z,12.28
2022-09-01T00:34:59.704Z,12.30
2022-09-01T00:37:29.465Z,12.30
2022-09-01T00:39:58.315Z,12.29
2022-09-01T00:42:28.269Z,12.31
2022-09-01T00:44:57.018Z,12.29
2022-09-01T00:47:25.865Z,12.32
2022-09-01T00:49:54.706Z,12.29
2022-09-01T00:52:24.934Z,12.31
2022-09-01T00:54:58.393Z,12.27
2022-09-01T00:57:28.079Z,12.23
2022-09-01T01:00:06.488Z,12.22
2022-09-01T01:02:36.105Z,12.25
2022-09-01T01:05:06.299Z,12.30
2022-09-01T01:07:37.723Z,12.31
2022-09-01T01:10:07.218Z,12.32
2022-09-01T01:12:37.698Z,12.36
2022-09-01T01:15:07.893Z,12.39
2022-09-01T01:17:37.093Z,12.41
2022-09-01T01:20:24.831Z,12.45
2022-09-01T01:23:08.569Z,12.46
2022-09-01T01:25:45.834Z,12.46
2022-09-01T01:28:19.173Z,12.48
2022-09-01T01:30:52.416Z,12.50
2022-09-01T01:33:23.513Z,12.51
2022-09-01T01:35:56.427Z,12.52
2022-09-01T01:38:27.497Z,12.55
2022-09-01T01:40:57.103Z,12.53
2022-09-01T01:43:27.663Z,12.55
2022-09-01T01:45:59.406Z,12.56
2022-09-01T01:48:32.433Z,12.55
2022-09-01T01:51:03.012Z,12.57
2022-09-01T01:53:32.865Z,12.59
2022-09-01T01:56:02.429Z,12.58
2022-09-01T01:58:35.017Z,12.59
2022-09-01T02:01:07.117Z,12.51
2022-09-01T02:03:37.530Z,12.56
2022-09-01T02:06:12.109Z,12.61
2022-09-01T02:08:42.588Z,12.64
2022-09-01T02:11:14.149Z,12.66
2022-09-01T02:13:42.939Z,12.70
2022-09-01T02:16:15.006Z,12.73
2022-09-01T02:18:47.073Z,12.74
2022-09-01T02:21:19.753Z,12.77
2022-09-01T02:23:49.975Z,12.79
2022-09-01T02:26:19.174Z,12.80
2022-09-01T02:28:55.586Z,12.81
2022-09-01T02:31:21.074Z,12.79
2022-09-01T02:33:50.043Z,12.79
2022-09-01T02:36:20.577Z,12.77
2022-09-01T02:38:53.747Z,12.78
2022-09-01T02:41:23.191Z,12.80
2022-09-01T02:43:52.095Z,12.79
2022-09-01T02:46:22.766Z,12.85
2022-09-01T02:48:54.683Z,12.80
2022-09-01T02:51:26.722Z,12.80
2022-09-01T02:53:56.344Z,12.81
2022-09-01T02:56:27.559Z,12.85
2022-09-01T02:58:56.780Z,12.80
2022-09-01T03:01:30.364Z,12.81
2022-09-01T03:04:05.821Z,12.81
2022-09-01T03:06:36.514Z,12.82
2022-09-01T03:09:06.880Z,12.78
2022-09-01T03:11:37.474Z,12.79
2022-09-01T03:14:07.738Z,12.74
2022-09-01T03:16:39.373Z,12.73
2022-09-01T03:19:09.567Z,12.56
2022-09-01T03:21:41.152Z,12.58
2022-09-01T03:24:12.508Z,12.59
2022-09-01T03:26:41.979Z,12.57
2022-09-01T03:29:10.916Z,12.58
2022-09-01T03:31:40.358Z,12.62
2022-09-01T03:34:12.134Z,12.61
2022-09-01T03:36:44.278Z,12.65
2022-09-01T03:39:16.631Z,12.68
2022-09-01T03:41:43.661Z,12.65
2022-09-01T03:44:13.864Z,12.62
2022-09-01T03:46:44.085Z,12.66
2022-09-01T03:49:14.530Z,12.63
2022-09-01T03:51:45.125Z,12.62
2022-09-01T03:54:14.163Z,12.54
2022-09-01T03:56:44.028Z,12.59
2022-09-01T03:59:16.098Z,12.59
2022-09-01T04:01:45.945Z,12.61
2022-09-01T04:04:15.523Z,12.63
2022-09-01T04:06:46.261Z,12.64
2022-09-01T04:09:15.769Z,12.62
2022-09-01T04:11:47.524Z,12.61
2022-09-01T04:14:17.290Z,12.61
2022-09-01T04:17:07.272Z,12.63
2022-09-01T04:19:39.684Z,12.58
2022-09-01T04:22:11.900Z,12.60
2022-09-01T04:24:46.170Z,12.62
2022-09-01T04:27:18.434Z,12.56
2022-09-01T04:29:47.821Z,12.68
2022-09-01T04:32:17.113Z,12.68
2022-09-01T04:34:51.408Z,12.70
2022-09-01T04:37:21.272Z,12.60
2022-09-01T04:39:58.405Z,12.68
2022-09-01T04:42:33.647Z,12.76
2022-09-01T04:45:10.158Z,12.83
2022-09-01T04:47:39.173Z,12.90
2022-09-01T04:50:10.931Z,12.98
2022-09-01T04:52:40.779Z,13.04
2022-09-01T04:55:14.448Z,13.03
2022-09-01T04:57:44.978Z,13.04
2022-09-01T05:00:18.006Z,13.12
2022-09-01T05:02:47.407Z,13.15
2022-09-01T05:05:18.039Z,13.23
2022-09-01T05:07:47.170Z,13.10
2022-09-01T05:10:17.731Z,13.22
2022-09-01T05:12:48.603Z,13.32
2022-09-01T05:15:17.819Z,13.39
2022-09-01T05:17:47.617Z,13.44
2022-09-01T05:20:16.777Z,13.46
2022-09-01T05:22:46.380Z,13.46
2022-09-01T05:25:15.165Z,13.57
2022-09-01T05:27:53.378Z,13.62
2022-09-01T05:30:25.568Z,13.69
2022-09-01T05:32:55.092Z,13.79
2022-09-01T05:35:31.643Z,13.89
2022-09-01T05:37:56.315Z,14.00
2022-09-01T05:40:25.569Z,14.12
2022-09-01T05:42:58.442Z,14.28
2022-09-01T05:45:27.389Z,14.33
2022-09-01T05:47:58.435Z,14.38
2022-09-01T05:50:28.232Z,14.42
2022-09-01T05:52:56.995Z,14.53
2022-09-01T05:55:28.424Z,14.55
2022-09-01T05:57:57.991Z,14.67
2022-09-01T06:00:28.346Z,14.76
2022-09-01T06:02:58.700Z,14.79
2022-09-01T06:05:27.947Z,14.87
2022-09-01T06:07:57.485Z,14.85
2022-09-01T06:10:27.108Z,14.97
2022-09-01T06:12:56.672Z,15.00
2022-09-01T06:15:27.812Z,15.11
2022-09-01T06:17:58.869Z,15.03
2022-09-01T06:20:30.109Z,15.04
2022-09-01T06:22:59.031Z,15.17
2022-09-01T06:25:29.380Z,15.18
2022-09-01T06:27:58.356Z,15.23
2022-09-01T06:30:27.287Z,15.26
2022-09-01T06:32:57.832Z,15.42
2022-09-01T06:35:29.635Z,15.47
2022-09-01T06:37:58.933Z,15.54
2022-09-01T06:40:36.263Z,15.72
2022-09-01T06:43:08.099Z,15.88
2022-09-01T06:45:42.862Z,16.04
2022-09-01T06:48:13.969Z,16.15
2022-09-01T06:55:49.208Z,16.34
2022-09-01T06:58:21.409Z,16.42
2022-09-01T07:00:50.604Z,16.66
2022-09-01T07:03:22.762Z,16.45
2022-09-01T07:06:04.165Z,16.58
2022-09-01T07:08:29.251Z,16.50
2022-09-01T07:12:24.264Z,16.77
2022-09-01T07:14:15.217Z,16.93
2022-09-01T07:18:44.650Z,17.01
2022-09-01T07:23:46.668Z,17.00
2022-09-01T07:26:24.563Z,16.94
2022-09-01T07:28:50.655Z,17.06
2022-09-01T07:33:54.366Z,17.60
2022-09-01T07:36:27.004Z,17.60
2022-09-01T07:44:12.726Z,18.31
2022-09-01T07:49:33.827Z,18.19
2022-09-01T07:52:02.154Z,18.71
2022-09-01T07:54:31.548Z,18.99
2022-09-01T07:57:03.075Z,18.98
2022-09-01T07:59:34.910Z,18.89
2022-09-01T08:02:06.694Z,18.30
2022-09-01T08:04:35.959Z,18.94
2022-09-01T08:07:06.381Z,19.01
2022-09-01T08:09:38.668Z,19.19
2022-09-01T08:12:09.815Z,19.33
2022-09-01T08:14:43.035Z,19.21
2022-09-01T08:17:18.027Z,19.68
2022-09-01T08:19:44.125Z,20.16
2022-09-01T08:22:15.897Z,20.40
2022-09-01T08:24:46.540Z,20.50
2022-09-01T08:27:15.796Z,19.61
2022-09-01T08:29:45.695Z,20.55
2022-09-01T08:32:14.443Z,20.59
2022-09-01T08:34:43.786Z,20.80
2022-09-01T08:37:13.396Z,21.32
2022-09-01T08:39:42.485Z,21.92
2022-09-01T08:42:19.163Z,21.22
2022-09-01T08:45:07.095Z,20.10
2022-09-01T08:47:55.929Z,19.87
2022-09-01T08:50:07.154Z,19.57
2022-09-01T08:52:41.978Z,18.99
2022-09-01T08:55:15.057Z,18.80
2022-09-01T08:57:57.145Z,18.88
2022-09-01T09:00:26.913Z,19.59
2022-09-01T09:03:02.126Z,20.23
2022-09-01T09:05:50.943Z,20.77
2022-09-01T09:08:37.492Z,21.36
2022-09-01T09:11:16.585Z,21.52
2022-09-01T09:14:04.945Z,21.74
2022-09-01T09:16:35.163Z,21.95
2022-09-01T09:19:06.507Z,21.52
2022-09-01T09:21:42.429Z,21.75
2022-09-01T09:24:12.926Z,22.11
2022-09-01T09:26:43.219Z,21.96
2022-09-01T09:29:12.020Z,21.17
2022-09-01T09:31:52.869Z,20.65
2022-09-01T09:34:37.042Z,20.50
2022-09-01T09:37:19.186Z,20.32
2022-09-01T09:40:10.056Z,21.56
2022-09-01T09:42:40.476Z,21.45
2022-09-01T09:45:11.068Z,20.71
2022-09-01T09:47:44.876Z,20.60
2022-09-01T09:50:21.071Z,20.22
2022-09-01T09:52:50.846Z,20.32
2022-09-01T09:55:27.976Z,20.09
2022-09-01T09:58:01.269Z,19.36
2022-09-01T10:00:32.418Z,19.42
2022-09-01T10:03:04.629Z,19.10
2022-09-01T10:05:40.500Z,19.38
2022-09-01T10:08:14.918Z,19.32
2022-09-01T10:10:46.209Z,19.06
2022-09-01T10:13:21.269Z,19.27
2022-09-01T10:15:51.974Z,19.33
2022-09-01T10:18:29.038Z,20.27
2022-09-01T10:21:01.616Z,20.20
2022-09-01T10:23:32.438Z,19.98
2022-09-01T10:26:05.935Z,19.22
2022-09-01T10:28:34.682Z,19.13
2022-09-01T10:31:05.585Z,19.09
2022-09-01T10:33:37.047Z,19.03
2022-09-01T10:36:07.984Z,19.10
2022-09-01T10:38:36.984Z,19.14
2022-09-01T10:41:15.855Z,18.96
2022-09-01T10:43:44.895Z,18.85
2022-09-01T10:46:24.430Z,18.91
2022-09-01T10:48:55.348Z,18.70
2022-09-01T10:51:28.122Z,18.19
2022-09-01T10:53:53.474Z,18.85
2022-09-01T10:56:43.898Z,19.57
2022-09-01T10:59:43.557Z,20.44
2022-09-01T11:02:22.927Z,20.65
2022-09-01T11:04:26.723Z,20.87
2022-09-01T11:07:14.493Z,21.30
2022-09-01T11:09:33.626Z,21.22
2022-09-01T11:12:13.164Z,20.91
2022-09-01T11:14:49.423Z,20.25
2022-09-01T11:17:20.696Z,20.50
2022-09-01T11:20:00.191Z,20.89
2022-09-01T11:22:33.553Z,20.94
2022-09-01T11:25:20.214Z,21.43
2022-09-01T11:27:53.654Z,21.28
2022-09-01T11:30:23.891Z,22.09
2022-09-01T11:32:54.548Z,22.26
2022-09-01T11:35:24.784Z,22.37
2022-09-01T11:37:55.028Z,22.39
2022-09-01T11:40:32.540Z,22.22
2022-09-01T11:43:03.932Z,22.53
2022-09-01T11:45:34.600Z,22.70
2022-09-01T11:48:05.900Z,21.82
2022-09-01T11:50:36.570Z,21.87
2022-09-01T11:53:06.854Z,21.30
2022-09-01T11:55:43.537Z,21.80
2022-09-01T11:58:17.794Z,22.30
2022-09-01T12:00:44.014Z,21.93
2022-09-01T12:03:20.746Z,22.40
2022-09-01T12:05:51.422Z,22.15
2022-09-01T12:08:24.195Z,22.51
2022-09-01T12:10:53.740Z,22.03
2022-09-01T12:13:25.388Z,21.52
2022-09-01T12:16:17.367Z,22.18
2022-09-01T12:18:35.847Z,22.52
2022-09-01T12:21:07.936Z,22.34
2022-09-01T12:23:38.701Z,22.67
2022-09-01T12:26:09.103Z,21.88
2022-09-01T12:28:39.618Z,22.67
2022-09-01T12:31:09.927Z,22.69
2022-09-01T12:33:39.071Z,22.58
2022-09-01T12:36:27.570Z,23.01
2022-09-01T12:38:58.412Z,22.80
2022-09-01T12:41:36.417Z,22.07
2022-09-01T12:44:23.333Z,21.90
2022-09-01T12:46:52.102Z,21.66
2022-09-01T12:49:22.445Z,21.03
2022-09-01T12:51:52.350Z,21.16
2022-09-01T12:54:22.574Z,21.28
2022-09-01T12:56:51.939Z,21.61
2022-09-01T12:59:26.210Z,21.79
2022-09-01T13:01:55.618Z,21.93
2022-09-01T13:04:29.498Z,22.28
2022-09-01T13:06:59.737Z,22.39
2022-09-01T13:09:28.987Z,22.35
2022-09-01T13:12:06.918Z,22.26
2022-09-01T13:14:33.023Z,22.97
2022-09-01T13:17:02.202Z,23.20
2022-09-01T13:19:30.962Z,23.07
2022-09-01T13:21:59.699Z,21.40
2022-09-01T13:24:31.321Z,21.04
2022-09-01T13:29:29.343Z,21.45
2022-09-01T13:34:29.050Z,22.44
2022-09-01T13:36:57.792Z,22.53
2022-09-01T13:39:26.587Z,23.02
2022-09-01T13:41:55.293Z,23.21
2022-09-01T13:44:24.123Z,22.48
2022-09-01T13:47:01.154Z,22.03
2022-09-01T13:51:53.876Z,21.43
2022-09-01T13:54:22.803Z,21.05
2022-09-01T13:56:52.923Z,20.94
2022-09-01T13:59:21.744Z,20.97
2022-09-01T14:01:50.566Z,21.16
2022-09-01T14:04:20.017Z,21.45
2022-09-01T14:06:48.798Z,21.68
2022-09-01T14:09:17.894Z,21.70
2022-09-01T14:11:46.681Z,21.88
2022-09-01T14:14:15.428Z,21.99
2022-09-01T14:16:46.205Z,21.81
2022-09-01T14:19:15.815Z,21.52
2022-09-01T14:21:44.591Z,21.52
2022-09-01T14:24:14.679Z,21.88
2022-09-01T14:26:43.396Z,21.72
2022-09-01T14:29:12.157Z,21.95
2022-09-01T14:31:42.115Z,21.46
2022-09-01T14:34:12.306Z,21.67
2022-09-01T14:36:41.189Z,21.60
2022-09-01T14:39:11.616Z,21.12
2022-09-01T14:41:41.055Z,21.60
2022-09-01T14:44:09.754Z,21.91
2022-09-01T14:46:39.370Z,21.96
2022-09-01T14:49:09.486Z,21.89
2022-09-01T14:54:09.047Z,21.86
2022-09-01T14:56:39.081Z,21.31
2022-09-01T14:59:09.502Z,21.41
2022-09-01T15:01:38.700Z,21.30
2022-09-01T15:04:07.593Z,21.09
2022-09-01T15:06:36.729Z,20.80
2022-09-01T15:09:05.925Z,20.98
2022-09-01T15:11:36.424Z,20.97
2022-09-01T15:14:07.133Z,21.03
2022-09-01T15:16:38.335Z,21.04
2022-09-01T15:19:09.583Z,21.01
2022-09-01T15:21:38.946Z,20.90
2022-09-01T15:24:08.668Z,20.76
2022-09-01T15:26:38.482Z,20.92
2022-09-01T15:29:09.346Z,20.89
2022-09-01T15:31:38.783Z,21.01
2022-09-01T15:34:07.949Z,21.18
2022-09-01T15:36:39.604Z,21.02
2022-09-01T15:39:09.214Z,20.94
2022-09-01T15:41:38.200Z,20.96
2022-09-01T15:44:07.892Z,20.20
2022-09-01T15:46:39.134Z,20.59
2022-09-01T15:49:09.773Z,20.83
2022-09-01T15:51:40.428Z,20.53
2022-09-01T15:54:10.753Z,19.66
2022-09-01T15:56:40.265Z,19.70
2022-09-01T15:59:09.434Z,18.89
2022-09-01T16:01:40.136Z,18.92
2022-09-01T16:04:15.814Z,18.83
2022-09-01T16:06:43.400Z,18.87
2022-09-01T16:09:12.711Z,18.73
2022-09-01T16:11:42.515Z,18.62
2022-09-01T16:14:11.530Z,18.48
2022-09-01T16:16:58.380Z,18.53
2022-09-01T16:19:37.367Z,18.67
2022-09-01T16:22:13.721Z,18.80
2022-09-01T16:24:44.049Z,18.90
2022-09-01T16:27:17.374Z,19.05
2022-09-01T16:29:48.003Z,19.00
2022-09-01T16:32:17.040Z,19.02
2022-09-01T16:34:47.256Z,19.17
2022-09-01T16:37:34.472Z,19.10
2022-09-01T16:40:21.627Z,19.09
2022-09-01T16:43:08.499Z,19.05
2022-09-01T16:45:55.250Z,19.01
2022-09-01T16:48:28.543Z,18.84
2022-09-01T16:51:01.459Z,18.86
2022-09-01T16:53:48.587Z,18.57
2022-09-01T16:56:21.802Z,18.55
2022-09-01T16:58:55.350Z,18.20
2022-09-01T17:01:30.051Z,18.41
2022-09-01T17:04:18.397Z,18.35
2022-09-01T17:06:51.892Z,18.26
2022-09-01T17:09:38.908Z,18.08
2022-09-01T17:12:10.766Z,18.08
2022-09-01T17:14:41.890Z,17.86
2022-09-01T17:17:12.178Z,17.60
2022-09-01T17:19:41.376Z,17.54
2022-09-01T17:22:14.396Z,17.57
2022-09-01T17:24:44.806Z,17.53
2022-09-01T17:27:18.018Z,17.31
2022-09-01T17:29:49.925Z,17.25
2022-09-01T17:32:23.801Z,17.19
2022-09-01T17:35:03.148Z,17.17
2022-09-01T17:37:33.760Z,17.02
2022-09-01T17:40:07.037Z,16.97
2022-09-01T17:42:38.819Z,16.85
2022-09-01T17:45:10.095Z,16.82
2022-09-01T17:47:43.671Z,16.72
2022-09-01T17:50:13.930Z,16.74
2022-09-01T17:52:49.700Z,16.52
2022-09-01T17:55:25.703Z,16.33
2022-09-01T17:57:56.068Z,16.38
2022-09-01T18:00:27.695Z,16.23
2022-09-01T18:03:15.153Z,16.12
2022-09-01T18:05:46.000Z,15.97
2022-09-01T18:08:32.837Z,15.79
2022-09-01T18:11:08.990Z,15.69
2022-09-01T18:13:52.746Z,15.56
2022-09-01T18:16:17.586Z,15.45
2022-09-01T18:18:48.848Z,15.29
2022-09-01T18:21:18.802Z,15.17
2022-09-01T18:23:48.710Z,15.03
2022-09-01T18:26:22.201Z,14.92
2022-09-01T18:28:55.456Z,14.67
2022-09-01T18:31:28.879Z,14.64
2022-09-01T18:33:59.233Z,14.53
2022-09-01T18:36:29.483Z,14.52
2022-09-01T18:39:09.632Z,14.44
2022-09-01T18:41:45.899Z,14.37
2022-09-01T18:44:32.916Z,14.33
2022-09-01T18:47:03.140Z,14.29
2022-09-01T18:49:42.713Z,14.20
2022-09-01T18:52:13.038Z,14.18
2022-09-01T18:54:43.323Z,14.10
2022-09-01T18:57:13.835Z,14.03
2022-09-01T18:59:56.917Z,13.96
2022-09-01T19:02:30.194Z,13.92
2022-09-01T19:05:00.183Z,13.90
2022-09-01T19:07:46.203Z,13.82
2022-09-01T19:10:22.493Z,13.70
2022-09-01T19:12:52.718Z,13.60
2022-09-01T19:15:30.171Z,13.54
2022-09-01T19:18:04.314Z,13.48
2022-09-01T19:20:43.567Z,13.36
2022-09-01T19:23:13.979Z,13.27
2022-09-01T19:25:43.689Z,13.22
2022-09-01T19:28:16.927Z,13.13
2022-09-01T19:30:48.305Z,13.04
2022-09-01T19:33:18.778Z,13.01
2022-09-01T19:35:49.153Z,12.93
2022-09-01T19:38:20.064Z,12.85
2022-09-01T19:40:50.283Z,12.78
2022-09-01T19:43:21.027Z,12.73
2022-09-01T19:45:55.783Z,12.64
2022-09-01T19:48:26.077Z,12.58
2022-09-01T19:50:59.233Z,12.47
2022-09-01T19:53:29.488Z,12.39
2022-09-01T19:56:08.880Z,12.39
2022-09-01T19:58:42.899Z,12.36
2022-09-01T20:01:13.200Z,12.32
2022-09-01T20:03:43.491Z,12.24
2022-09-01T20:06:19.929Z,12.20
2022-09-01T20:09:07.436Z,12.20
2022-09-01T20:11:43.956Z,12.15
2022-09-01T20:14:18.558Z,12.04
2022-09-01T20:16:49.777Z,11.96
2022-09-01T20:19:25.837Z,11.92
2022-09-01T20:21:55.000Z,11.86
2022-09-01T20:24:28.330Z,11.85
2022-09-01T20:27:01.761Z,11.81
2022-09-01T20:29:39.014Z,11.79
2022-09-01T20:32:08.012Z,11.74
2022-09-01T20:34:44.851Z,11.67
2022-09-01T20:37:15.112Z,11.67
2022-09-01T20:40:05.008Z,11.64
2022-09-01T20:42:53.514Z,11.67
2022-09-01T20:45:23.564Z,11.65
2022-09-01T20:47:57.989Z,11.58
2022-09-01T20:50:28.592Z,11.57
2022-09-01T20:53:04.884Z,11.52
2022-09-01T20:55:35.139Z,11.50
2022-09-01T20:58:08.498Z,11.49
2022-09-01T21:00:38.720Z,11.43
2022-09-01T21:03:11.888Z,11.42
2022-09-01T21:05:57.714Z,11.40
2022-09-01T21:08:27.982Z,11.38
2022-09-01T21:11:13.710Z,11.38
2022-09-01T21:13:44.342Z,11.36
2022-09-01T21:16:21.786Z,11.38
2022-09-01T21:19:07.697Z,11.38
2022-09-01T21:21:38.013Z,11.39
2022-09-01T21:24:07.864Z,11.40
2022-09-01T21:26:38.354Z,11.38
2022-09-01T21:29:14.863Z,11.41
2022-09-01T21:31:43.988Z,11.48
2022-09-01T21:34:16.695Z,11.54
2022-09-01T21:36:43.163Z,11.57
2022-09-01T21:39:13.045Z,11.58
2022-09-01T21:41:42.085Z,11.57
2022-09-01T21:44:10.934Z,11.54
2022-09-01T21:46:39.931Z,11.42
2022-09-01T21:49:08.818Z,11.45
2022-09-01T21:51:38.515Z,11.57
2022-09-01T21:54:08.268Z,11.58
2022-09-01T21:56:37.737Z,11.63
2022-09-01T21:59:06.533Z,11.61
2022-09-01T22:01:36.302Z,11.64
2022-09-01T22:04:05.311Z,11.67
2022-09-01T22:06:34.325Z,11.70
2022-09-01T22:09:03.541Z,11.71
2022-09-01T22:11:34.158Z,11.72
2022-09-01T22:14:03.564Z,11.76
2022-09-01T22:16:32.853Z,11.76
2022-09-01T22:19:01.896Z,11.80
2022-09-01T22:21:30.789Z,11.78
2022-09-01T22:23:59.687Z,11.78
2022-09-01T22:26:30.230Z,11.75
2022-09-01T22:29:00.091Z,11.73
2022-09-01T22:31:30.676Z,11.74
2022-09-01T22:34:00.024Z,11.74
2022-09-01T22:36:30.237Z,11.71
2022-09-01T22:38:59.652Z,11.58
2022-09-01T22:41:29.861Z,11.51
2022-09-01T22:44:00.232Z,11.50
2022-09-01T22:46:30.923Z,11.43
2022-09-01T22:49:00.326Z,11.40
2022-09-01T22:51:29.731Z,11.29
2022-09-01T22:53:58.531Z,11.39
2022-09-01T22:56:29.109Z,11.39
2022-09-01T22:58:58.863Z,11.37
2022-09-01T23:01:30.775Z,11.32
2022-09-01T23:04:01.881Z,11.30
2022-09-01T23:06:31.165Z,11.28
2022-09-01T23:09:02.147Z,11.30
2022-09-01T23:11:31.038Z,11.30
2022-09-01T23:13:59.832Z,11.29
2022-09-01T23:16:29.064Z,11.31
2022-09-01T23:18:57.901Z,11.30
2022-09-01T23:21:28.186Z,11.30
2022-09-01T23:23:59.059Z,11.31
2022-09-01T23:26:29.096Z,11.29
2022-09-01T23:28:58.559Z,11.30
2022-09-01T23:31:29.101Z,11.33
2022-09-01T23:33:58.222Z,11.30
2022-09-01T23:36:28.656Z,11.30
2022-09-01T23:38:57.844Z,11.30
2022-09-01T23:41:29.519Z,11.30
2022-09-01T23:43:59.321Z,11.30
2022-09-01T23:46:29.673Z,11.33
2022-09-01T23:48:58.496Z,11.31
2022-09-01T23:51:27.282Z,11.29
2022-09-01T23:53:56.173Z,11.26
2022-09-01T23:56:26.576Z,11.23
2022-09-01T23:58:55.436Z,11.20
